Time;durP1;ratioP1;P1;durP2;ratioP2;P2;SDS_P1;SDS_P2;PMS_P1;PMS_P2;Temp;Humidity;BMP_temperature;BMP_pressure;BME280_temperature;BME280_humidity;BME280_pressure;Samples;Min_cycle;Max_cycle;Signal;HPM_P1;HPM_P2
2022/02/01 16:51:28;;;;;;;9.33;3.52;;;;;;;1.33;43.81;99736.75;1728658;81;20994;-68
2022/02/01 16:54:01;;;;;;;8.60;3.72;;;;;;;1.31;44.00;99737.47;1723189;81;21087;-68
2022/02/01 16:59:18;;;;;;;8.10;3.37;;;;;;;1.27;43.58;99736.81;1732861;82;21126;-68
2022/02/01 17:01:41;;;;;;;8.75;3.42;;;;;;;1.26;43.46;99733.89;1732119;82;21174;-67
2022/02/01 17:04:08;;;;;;;8.05;3.45;;;;;;;1.24;43.56;99730.66;1735057;82;21008;-67
2022/02/01 17:06:34;;;;;;;10.58;3.83;;;;;;;1.22;43.67;99728.27;1710357;82;21670;-66
2022/02/01 17:09:03;;;;;;;8.38;3.75;;;;;;;1.23;44.03;99736.95;1696371;82;21690;-67
2022/02/01 17:21:56;;;;;;;9.87;4.00;;;;;;;1.16;45.14;99731.23;1433509;80;10000469;-69
2022/02/01 17:24:23;;;;;;;8.10;4.25;;;;;;;1.16;45.17;99734.37;1624112;87;21461;-69
2022/02/01 17:26:51;;;;;;;7.50;3.50;;;;;;;1.16;45.33;99723.86;1605039;84;21728;-69
2022/02/01 17:29:17;;;;;;;6.20;3.22;;;;;;;1.16;45.48;99722.55;1627835;86;21747;-68
2022/02/01 17:31:44;;;;;;;5.42;2.95;;;;;;;1.16;45.52;99727.29;1640602;83;21083;-68
2022/02/01 17:34:10;;;;;;;7.95;3.08;;;;;;;1.15;45.75;99715.66;1619696;86;21131;-67
2022/02/01 17:36:37;;;;;;;7.05;3.15;;;;;;;1.16;45.85;99713.34;1618619;87;21151;-67
2022/02/01 17:39:05;;;;;;;6.22;3.27;;;;;;;1.18;45.95;99711.28;1621455;86;21136;-67
2022/02/01 17:41:31;;;;;;;6.83;3.25;;;;;;;1.20;46.03;99715.83;1641141;85;21608;-68
2022/02/01 17:43:58;;;;;;;6.53;3.12;;;;;;;1.23;46.20;99708.02;1611606;86;21823;-67
2022/02/01 17:46:25;;;;;;;7.97;3.50;;;;;;;1.23;46.12;99705.39;1623781;87;21600;-67
2022/02/01 17:48:52;;;;;;;7.17;3.47;;;;;;;1.21;45.96;99706.10;1619764;86;21102;-67
2022/02/01 17:54:18;;;;;;;6.92;3.87;;;;;;;1.15;46.09;99706.45;1566713;87;21115;-67
2022/02/01 17:56:36;;;;;;;7.58;3.42;;;;;;;1.13;46.17;99698.79;1695312;84;21091;-67
2022/02/01 17:59:02;;;;;;;7.35;3.70;;;;;;;1.11;46.30;99702.13;1693513;83;21055;-68
2022/02/01 18:01:29;;;;;;;7.28;3.50;;;;;;;1.09;46.42;99699.45;1702795;83;21032;-68
2022/02/01 18:03:55;;;;;;;8.33;3.92;;;;;;;1.07;46.41;99705.42;1705567;82;21059;-69
2022/02/01 18:06:22;;;;;;;7.22;3.90;;;;;;;1.08;46.42;99705.70;1691064;84;21127;-69
2022/02/01 18:08:51;;;;;;;8.70;3.52;;;;;;;1.06;46.50;99700.67;1690313;83;21112;-68
2022/02/01 18:11:18;;;;;;;6.97;4.00;;;;;;;1.07;46.36;99694.39;1696569;84;21084;-68
2022/02/01 18:14:01;;;;;;;6.08;2.98;;;;;;;1.04;46.16;99684.30;1693378;84;21618;-69
2022/02/01 18:16:16;;;;;;;6.40;3.37;;;;;;;1.02;46.15;99688.98;1694237;84;21614;-68
2022/02/01 18:18:43;;;;;;;8.05;3.42;;;;;;;1.04;46.04;99686.13;1683512;84;21115;-68
2022/02/01 18:21:15;;;;;;;7.17;3.40;;;;;;;1.02;45.75;99682.41;1689972;84;21113;-68
2022/02/01 18:23:43;;;;;;;7.03;3.60;;;;;;;1.00;45.65;99683.13;1694844;84;21114;-67
2022/02/01 18:26:11;;;;;;;7.35;3.30;;;;;;;0.98;45.70;99687.78;1692804;84;21591;-68
2022/02/01 18:28:38;;;;;;;6.40;3.17;;;;;;;0.98;45.54;99694.36;1683066;84;21061;-67
2022/02/01 18:31:06;;;;;;;6.20;3.30;;;;;;;0.96;45.46;99699.05;1689597;83;21060;-67
2022/02/01 18:33:38;;;;;;;6.03;3.20;;;;;;;0.92;45.37;99704.41;1668187;83;21250;-67
2022/02/01 18:36:18;;;;;;;6.85;3.35;;;;;;;0.90;45.42;99702.53;1676100;84;22174;-67
2022/02/01 18:38:42;;;;;;;7.42;3.65;;;;;;;0.89;45.63;99700.92;1739968;82;20993;-66
2022/02/01 18:41:09;;;;;;;7.55;3.50;;;;;;;0.89;45.77;99699.10;1715838;82;21051;-68
2022/02/01 18:43:42;;;;;;;8.30;4.20;;;;;;;0.89;45.80;99699.61;1715220;82;21039;-68
2022/02/01 18:46:12;;;;;;;7.47;3.37;;;;;;;0.89;46.00;99700.92;1715201;82;22021;-67
2022/02/01 18:48:48;;;;;;;6.58;3.35;;;;;;;0.90;46.17;99695.44;1709765;82;21727;-68
2022/02/01 18:51:32;;;;;;;8.08;3.92;;;;;;;0.92;46.15;99695.21;1719052;81;21129;-67
2022/02/01 18:53:59;;;;;;;9.70;4.47;;;;;;;0.88;46.24;99694.84;1706068;81;21106;-68
2022/02/01 18:58:53;;;;;;;7.92;4.12;;;;;;;0.87;46.48;99703.75;1714034;81;21708;-68
2022/02/01 19:04:44;;;;;;;6.67;3.30;;;;;;;0.88;46.68;99694.04;1693107;83;21046;-67
2022/02/01 19:07:09;;;;;;;8.43;4.03;;;;;;;0.86;46.69;99692.95;1689341;84;21065;-69
2022/02/01 19:12:18;;;;;;;7.75;3.80;;;;;;;0.87;46.90;99698.50;1713895;82;21163;-68
2022/02/01 19:14:45;;;;;;;7.22;3.60;;;;;;;0.87;46.91;99696.38;1706476;81;21560;-68
2022/02/01 19:17:11;;;;;;;8.83;3.85;;;;;;;0.89;46.99;99696.47;1742463;81;21031;-69
2022/02/01 19:19:40;;;;;;;8.73;3.95;;;;;;;0.89;47.01;99700.92;1736733;81;21534;-68
2022/02/01 19:22:07;;;;;;;8.50;3.27;;;;;;;0.89;46.99;99695.67;1697046;83;21102;-67
2022/02/01 19:24:36;;;;;;;7.12;3.70;;;;;;;0.91;46.92;99700.19;1732304;80;21721;-69
2022/02/01 19:27:07;;;;;;;7.10;3.52;;;;;;;0.89;46.89;99700.41;1724649;81;21067;-71
2022/02/01 19:29:37;;;;;;;;;;;;;;;0.89;46.97;99695.67;1724235;81;21094;-69
2022/02/01 19:32:09;;;;;;;7.08;3.75;;;;;;;0.87;46.83;99695.87;1715909;81;20204;-69
2022/02/01 19:34:36;;;;;;;6.90;3.22;;;;;;;0.87;46.97;99699.02;1695244;81;21126;-68
2022/02/01 19:37:03;;;;;;;5.97;3.08;;;;;;;0.88;46.96;99696.16;1724607;81;22115;-69
2022/02/01 19:39:30;;;;;;;7.35;3.40;;;;;;;0.87;46.85;99697.18;1725047;81;21078;-68
2022/02/01 19:41:59;;;;;;;5.87;3.22;;;;;;;0.88;46.81;99697.98;1715884;82;21449;-69
2022/02/01 19:44:34;;;;;;;6.60;3.42;;;;;;;0.87;46.81;99695.06;1708034;81;21023;-69
2022/02/01 19:47:00;;;;;;;8.08;3.30;;;;;;;0.85;46.75;99695.27;1708967;82;21141;-70
2022/02/01 19:49:24;;;;;;;5.97;2.72;;;;;;;0.84;46.60;99692.35;1664644;85;21177;-69
2022/02/01 19:51:51;;;;;;;6.17;2.65;;;;;;;0.82;46.14;99694.38;1712041;82;21102;-69
2022/02/01 19:54:18;;;;;;;6.25;3.40;;;;;;;0.84;45.80;99699.44;1708062;82;21094;-69
2022/02/01 19:56:44;;;;;;;5.85;2.75;;;;;;;0.85;45.99;99693.15;1716338;82;21055;-69
2022/02/01 19:59:12;;;;;;;6.67;3.27;;;;;;;0.87;46.03;99697.18;1665954;85;21110;-68
2022/02/01 20:01:43;;;;;;;7.72;3.50;;;;;;;0.89;46.15;99702.24;1696875;82;21199;-69
2022/02/01 20:04:14;;;;;;;7.78;3.85;;;;;;;0.91;46.32;99694.92;1707892;82;21071;-69
2022/02/01 20:06:49;;;;;;;6.72;3.55;;;;;;;0.93;46.42;99684.50;1697340;83;21067;-68
2022/02/01 20:09:30;;;;;;;5.60;3.30;;;;;;;0.96;46.43;99689.84;1696815;83;21573;-69
2022/02/01 20:11:59;;;;;;;8.78;4.00;;;;;;;0.96;46.51;99691.67;1712252;82;21613;-69
2022/02/01 20:14:27;;;;;;;7.22;3.27;;;;;;;0.96;46.72;99691.16;1712626;82;21529;-69
2022/02/01 20:16:53;;;;;;;7.40;3.42;;;;;;;0.98;46.75;99690.93;1695363;81;21110;-69
2022/02/01 20:19:21;;;;;;;9.40;3.85;;;;;;;0.96;46.76;99692.47;1690426;82;21050;-69
2022/02/01 20:21:47;;;;;;;8.40;3.98;;;;;;;0.94;46.99;99697.13;1713090;81;21130;-68
2022/02/01 20:24:14;;;;;;;6.85;3.33;;;;;;;0.94;47.15;99697.92;1714410;82;21097;-69
2022/02/01 20:26:40;;;;;;;6.35;3.55;;;;;;;0.95;47.28;99701.36;1707399;82;21080;-69
2022/02/01 20:29:07;;;;;;;8.48;4.08;;;;;;;0.94;47.39;99698.44;1707805;81;21086;-69
2022/02/01 20:31:34;;;;;;;9.75;3.92;;;;;;;0.96;47.50;99696.41;1722918;81;21119;-69
2022/02/01 20:34:04;;;;;;;7.90;4.20;;;;;;;0.99;47.61;99690.73;1716367;82;21130;-69
2022/02/01 20:36:32;;;;;;;7.37;4.22;;;;;;;1.00;47.70;99691.02;1710530;82;21039;-69
2022/02/01 20:39:07;;;;;;;8.40;4.45;;;;;;;1.02;47.73;99688.98;1711749;81;21137;-69
2022/02/01 20:41:28;;;;;;;9.85;4.33;;;;;;;0.99;47.81;99686.78;1710737;81;21035;-69
2022/02/01 20:43:56;;;;;;;10.23;4.67;;;;;;;1.00;47.94;99689.70;1734929;81;33755;-68
2022/02/01 20:46:22;;;;;;;8.68;4.40;;;;;;;1.02;48.08;99699.50;1724667;81;21192;-69
2022/02/01 20:48:48;;;;;;;8.65;4.62;;;;;;;1.03;48.13;99692.41;1706909;81;21093;-68
2022/02/01 20:51:15;;;;;;;9.83;4.95;;;;;;;1.04;48.23;99690.88;1698348;82;21156;-68
2022/02/01 20:53:43;;;;;;;11.10;5.35;;;;;;;1.07;48.26;99688.33;1724363;80;21058;-68
2022/02/01 20:56:11;;;;;;;10.53;4.55;;;;;;;1.04;48.36;99688.24;1715593;80;21628;-68
2022/02/01 20:58:38;;;;;;;10.70;5.53;;;;;;;1.02;48.43;99689.47;1712219;81;21042;-68
2022/02/01 21:01:07;;;;;;;11.08;4.92;;;;;;;0.99;48.53;99689.41;1716470;81;21051;-69
2022/02/01 21:03:35;;;;;;;8.30;4.83;;;;;;;0.98;48.75;99691.73;1714758;81;21147;-68
2022/02/01 21:06:02;;;;;;;9.30;5.12;;;;;;;0.97;48.83;99680.92;1712207;81;21106;-67
2022/02/01 21:08:29;;;;;;;12.05;5.58;;;;;;;0.98;48.96;99682.52;1722276;80;21189;-68
2022/02/01 21:10:57;;;;;;;10.30;5.42;;;;;;;0.97;49.13;99687.50;1720392;81;21039;-67
2022/02/01 21:13:25;;;;;;;12.78;6.10;;;;;;;0.96;49.20;99688.53;1721874;81;21055;-67
2022/02/01 21:15:52;;;;;;;11.68;5.83;;;;;;;0.96;49.37;99687.73;1723385;81;21214;-67
2022/02/01 21:18:20;;;;;;;9.60;5.15;;;;;;;0.95;49.50;99690.84;1719059;81;21059;-68
2022/02/01 21:20:46;;;;;;;12.20;5.95;;;;;;;0.93;49.55;99684.50;1703162;81;21150;-68
2022/02/01 21:23:13;;;;;;;9.93;5.40;;;;;;;0.94;49.55;99682.67;1720757;81;21474;-68
2022/02/01 21:25:40;;;;;;;10.68;5.22;;;;;;;0.92;49.64;99681.58;1717848;82;21094;-68
2022/02/01 21:28:07;;;;;;;9.53;4.70;;;;;;;0.94;49.65;99681.35;1712243;82;21070;-67
2022/02/01 21:30:34;;;;;;;8.78;4.65;;;;;;;0.93;49.54;99673.98;1716163;81;21617;-68
2022/02/01 21:33:01;;;;;;;11.15;5.47;;;;;;;0.92;49.54;99668.92;1717494;82;21562;-67
2022/02/01 21:35:30;;;;;;;10.65;5.35;;;;;;;0.88;49.41;99671.17;1717092;82;21384;-68
2022/02/01 21:37:57;;;;;;;10.03;4.95;;;;;;;0.85;49.46;99670.80;1694764;81;21110;-66
2022/02/01 21:40:23;;;;;;;9.40;4.50;;;;;;;0.84;49.47;99673.15;1745862;81;21863;-66
2022/02/01 21:42:50;;;;;;;8.20;4.47;;;;;;;0.81;49.56;99670.43;1748060;80;21550;-67
2022/02/01 21:45:18;;;;;;;10.03;4.67;;;;;;;0.80;49.49;99670.66;1723103;81;21566;-67
2022/02/01 21:47:45;;;;;;;8.30;4.30;;;;;;;0.77;49.47;99666.63;1713269;81;21000;-68
2022/02/01 21:50:13;;;;;;;10.28;4.47;;;;;;;0.77;49.50;99662.69;1720253;81;21071;-68
2022/02/01 21:52:40;;;;;;;9.18;4.90;;;;;;;0.79;49.45;99659.83;1716495;82;21149;-67
2022/02/01 21:55:21;;;;;;;7.95;4.35;;;;;;;0.81;49.36;99667.00;1723693;81;20974;-68
2022/02/01 21:57:48;;;;;;;10.15;4.53;;;;;;;0.80;49.34;99658.31;1716896;81;21057;-68
2022/02/01 22:00:19;;;;;;;9.03;3.75;;;;;;;0.79;49.27;99655.89;1741209;81;21011;-69
2022/02/01 22:02:49;;;;;;;6.72;2.92;;;;;;;0.77;49.17;99648.75;1744408;80;21063;-69
2022/02/01 22:05:16;;;;;;;9.00;4.10;;;;;;;0.74;49.00;99653.91;1745326;80;21098;-68
2022/02/01 22:07:43;;;;;;;8.80;4.25;;;;;;;0.71;48.97;99655.66;1744693;80;21590;-67
2022/02/01 22:10:10;;;;;;;8.03;3.90;;;;;;;0.67;48.94;99646.09;1748352;82;21565;-68
2022/02/01 22:12:38;;;;;;;9.13;4.20;;;;;;;0.65;48.96;99647.31;1747642;80;21040;-68
2022/02/01 22:15:07;;;;;;;7.60;3.52;;;;;;;0.65;48.97;99653.88;1748473;80;21063;-68
2022/02/01 22:17:33;;;;;;;6.55;3.52;;;;;;;0.65;48.95;99657.31;1748132;80;21762;-67
2022/02/01 22:20:00;;;;;;;7.40;3.62;;;;;;;0.62;49.09;99656.94;1748414;81;20976;-67
2022/02/01 22:22:27;;;;;;;8.50;4.20;;;;;;;0.60;49.13;99650.59;1748303;81;21464;-68
2022/02/01 22:24:54;;;;;;;9.45;4.08;;;;;;;0.57;49.14;99649.70;1748409;81;20977;-68
2022/02/01 22:27:23;;;;;;;7.12;3.90;;;;;;;0.57;49.21;99641.82;1748732;81;21001;-68
2022/02/01 22:29:52;;;;;;;7.42;3.92;;;;;;;0.55;49.25;99642.53;1745280;81;21091;-66
2022/02/01 22:32:23;;;;;;;7.37;3.98;;;;;;;0.55;49.33;99641.22;1748660;80;21672;-68
2022/02/01 22:34:50;;;;;;;7.58;3.70;;;;;;;0.56;49.47;99634.97;1745135;81;21024;-68
2022/02/01 22:37:24;;;;;;;7.67;3.92;;;;;;;0.56;49.59;99639.39;1738226;80;21099;-66
2022/02/01 22:40:05;;;;;;;9.65;4.40;;;;;;;0.55;49.74;99640.42;1726237;81;21079;-67
2022/02/01 22:42:35;;;;;;;8.73;4.25;;;;;;;0.55;49.88;99639.91;1747688;80;21169;-68
2022/02/01 22:45:01;;;;;;;8.90;4.25;;;;;;;0.54;50.01;99634.36;1745222;81;21072;-68
2022/02/01 22:47:28;;;;;;;9.03;4.47;;;;;;;0.52;50.09;99625.88;1748388;80;20976;-67
2022/02/01 22:49:56;;;;;;;8.78;4.72;;;;;;;0.50;50.21;99628.45;1748515;81;20968;-67
2022/02/01 22:52:23;;;;;;;10.10;4.65;;;;;;;0.45;50.32;99627.75;1748365;80;21590;-68
2022/02/01 22:54:49;;;;;;;8.80;4.70;;;;;;;0.42;50.45;99622.92;1748248;81;21083;-67
2022/02/01 22:57:16;;;;;;;10.88;5.10;;;;;;;0.41;50.62;99622.64;1748434;80;21000;-68
2022/02/01 22:59:42;;;;;;;9.40;4.87;;;;;;;0.39;50.70;99614.16;1748380;80;20996;-68
2022/02/01 23:02:09;;;;;;;8.75;4.53;;;;;;;0.38;50.82;99606.78;1748454;80;21023;-67
2022/02/01 23:04:37;;;;;;;8.73;4.87;;;;;;;0.38;50.93;99612.04;1748301;81;20960;-68
2022/02/01 23:07:07;;;;;;;9.18;4.90;;;;;;;0.38;51.03;99605.48;1748339;80;21104;-68
2022/02/01 23:09:55;;;;;;;9.35;4.80;;;;;;;0.37;51.15;99608.33;1714947;83;21518;-68
2022/02/01 23:15:03;;;;;;;11.55;5.28;;;;;;;0.33;51.31;99611.06;1748611;80;21554;-67
2022/02/01 23:20:08;;;;;;;13.58;5.30;;;;;;;0.32;51.63;99627.84;1718869;81;21492;-67
2022/02/01 23:22:35;;;;;;;10.50;5.42;;;;;;;0.32;51.69;99623.91;1739877;81;21610;-68
2022/02/01 23:25:02;;;;;;;9.53;5.10;;;;;;;0.31;51.83;99628.88;1718335;82;21106;-68
2022/02/01 23:27:28;;;;;;;10.18;5.28;;;;;;;0.30;51.96;99626.77;1718587;81;21042;-67
2022/02/01 23:29:55;;;;;;;11.10;5.75;;;;;;;0.29;52.06;99625.64;1718541;82;21529;-69
2022/02/01 23:32:33;;;;;;;12.68;6.15;;;;;;;0.28;52.25;99623.53;1718481;82;21192;-66
2022/02/01 23:35:05;;;;;;;12.58;5.72;;;;;;;0.30;52.43;99625.45;1717504;82;20964;-68
2022/02/01 23:47:52;;;;;;;10.65;5.50;;;;;;;0.13;52.59;99638.77;1748150;80;22243;-68
2022/02/01 23:50:23;;;;;;;11.08;5.58;;;;;;;0.07;52.67;99636.50;1748405;80;21533;-68
2022/02/01 23:52:52;;;;;;;11.35;5.35;;;;;;;0.02;52.70;99638.94;1747172;80;21087;-67
2022/02/01 23:55:23;;;;;;;11.53;5.95;;;;;;;-0.05;52.76;99646.05;1748379;80;21027;-67
2022/02/01 23:57:55;;;;;;;10.30;5.87;;;;;;;-0.11;52.84;99648.99;1747705;81;21541;-67
